sensor_id;sensor_type;location;lat;lon;timestamp;P1;durP1;ratioP1;P2;durP2;ratioP2
46407;SDS011;32110;45.724;21.276;2023-07-31T00:02:22;3.47;;;3.00;;
46407;SDS011;32110;45.724;21.276;2023-07-31T00:04:47;4.70;;;3.63;;
46407;SDS011;32110;45.724;21.276;2023-07-31T00:07:13;4.72;;;3.33;;
46407;SDS011;32110;45.724;21.276;2023-07-31T00:09:39;4.47;;;3.47;;
46407;SDS011;32110;45.724;21.276;2023-07-31T00:12:04;3.63;;;3.20;;
46407;SDS011;32110;45.724;21.276;2023-07-31T00:14:30;5.38;;;3.30;;
46407;SDS011;32110;45.724;21.276;2023-07-31T00:16:56;4.28;;;3.03;;
46407;SDS011;32110;45.724;21.276;2023-07-31T00:19:21;4.53;;;3.38;;
46407;SDS011;32110;45.724;21.276;2023-07-31T00:21:46;5.75;;;3.15;;
46407;SDS011;32110;45.724;21.276;2023-07-31T00:24:12;4.82;;;3.10;;
46407;SDS011;32110;45.724;21.276;2023-07-31T00:26:37;3.95;;;3.03;;
46407;SDS011;32110;45.724;21.276;2023-07-31T00:29:02;5.70;;;3.30;;
46407;SDS011;32110;45.724;21.276;2023-07-31T00:31:28;3.15;;;2.85;;
46407;SDS011;32110;45.724;21.276;2023-07-31T00:33:53;4.28;;;3.10;;
46407;SDS011;32110;45.724;21.276;2023-07-31T00:36:18;3.85;;;3.10;;
46407;SDS011;32110;45.724;21.276;2023-07-31T00:38:44;5.18;;;3.33;;
46407;SDS011;32110;45.724;21.276;2023-07-31T00:41:09;3.53;;;2.85;;
46407;SDS011;32110;45.724;21.276;2023-07-31T00:43:34;4.30;;;2.90;;
46407;SDS011;32110;45.724;21.276;2023-07-31T00:46:00;4.82;;;3.30;;
46407;SDS011;32110;45.724;21.276;2023-07-31T00:48:25;4.18;;;3.20;;
46407;SDS011;32110;45.724;21.276;2023-07-31T00:50:51;5.95;;;3.13;;
46407;SDS011;32110;45.724;21.276;2023-07-31T00:53:17;6.00;;;3.65;;
46407;SDS011;32110;45.724;21.276;2023-07-31T00:55:43;5.85;;;3.50;;
46407;SDS011;32110;45.724;21.276;2023-07-31T00:58:09;4.38;;;3.20;;
46407;SDS011;32110;45.724;21.276;2023-07-31T01:00:34;5.45;;;3.90;;
46407;SDS011;32110;45.724;21.276;2023-07-31T01:03:00;4.93;;;3.17;;
46407;SDS011;32110;45.724;21.276;2023-07-31T01:05:49;5.53;;;3.40;;
46407;SDS011;32110;45.724;21.276;2023-07-31T01:08:29;5.72;;;3.00;;
46407;SDS011;32110;45.724;21.276;2023-07-31T01:11:15;4.65;;;3.10;;
46407;SDS011;32110;45.724;21.276;2023-07-31T01:13:44;6.00;;;3.05;;
46407;SDS011;32110;45.724;21.276;2023-07-31T01:16:11;3.88;;;2.75;;
46407;SDS011;32110;45.724;21.276;2023-07-31T01:18:36;5.72;;;2.92;;
46407;SDS011;32110;45.724;21.276;2023-07-31T01:26:45;6.25;;;3.45;;
46407;SDS011;32110;45.724;21.276;2023-07-31T01:29:25;8.77;;;3.28;;
46407;SDS011;32110;45.724;21.276;2023-07-31T01:32:03;8.23;;;3.78;;
46407;SDS011;32110;45.724;21.276;2023-07-31T01:34:31;5.05;;;3.67;;
46407;SDS011;32110;45.724;21.276;2023-07-31T01:36:57;7.25;;;3.85;;
46407;SDS011;32110;45.724;21.276;2023-07-31T01:39:23;8.45;;;3.40;;
46407;SDS011;32110;45.724;21.276;2023-07-31T01:41:49;9.00;;;4.00;;
46407;SDS011;32110;45.724;21.276;2023-07-31T01:44:14;6.50;;;4.20;;
46407;SDS011;32110;45.724;21.276;2023-07-31T01:46:39;8.27;;;3.85;;
46407;SDS011;32110;45.724;21.276;2023-07-31T01:49:05;6.05;;;3.45;;
46407;SDS011;32110;45.724;21.276;2023-07-31T01:51:31;5.70;;;3.58;;
46407;SDS011;32110;45.724;21.276;2023-07-31T01:53:59;6.57;;;3.60;;
46407;SDS011;32110;45.724;21.276;2023-07-31T01:56:25;6.32;;;3.95;;
46407;SDS011;32110;45.724;21.276;2023-07-31T01:58:50;15.25;;;8.57;;
46407;SDS011;32110;45.724;21.276;2023-07-31T02:01:15;11.45;;;8.25;;
46407;SDS011;32110;45.724;21.276;2023-07-31T02:03:41;25.85;;;17.30;;
46407;SDS011;32110;45.724;21.276;2023-07-31T02:06:07;31.60;;;21.48;;
46407;SDS011;32110;45.724;21.276;2023-07-31T02:08:32;27.67;;;17.23;;
46407;SDS011;32110;45.724;21.276;2023-07-31T02:10:58;20.20;;;14.63;;
46407;SDS011;32110;45.724;21.276;2023-07-31T02:13:23;14.80;;;9.00;;
46407;SDS011;32110;45.724;21.276;2023-07-31T02:15:48;7.45;;;5.18;;
46407;SDS011;32110;45.724;21.276;2023-07-31T02:18:15;11.48;;;5.30;;
46407;SDS011;32110;45.724;21.276;2023-07-31T02:20:40;20.13;;;4.97;;
46407;SDS011;32110;45.724;21.276;2023-07-31T02:23:06;7.13;;;4.32;;
46407;SDS011;32110;45.724;21.276;2023-07-31T02:25:31;5.63;;;4.38;;
46407;SDS011;32110;45.724;21.276;2023-07-31T02:27:56;4.50;;;3.80;;
46407;SDS011;32110;45.724;21.276;2023-07-31T02:30:22;13.25;;;4.55;;
46407;SDS011;32110;45.724;21.276;2023-07-31T02:32:47;6.20;;;3.58;;
46407;SDS011;32110;45.724;21.276;2023-07-31T02:35:13;8.40;;;4.03;;
46407;SDS011;32110;45.724;21.276;2023-07-31T02:37:40;5.72;;;3.72;;
46407;SDS011;32110;45.724;21.276;2023-07-31T02:40:06;5.18;;;3.72;;
46407;SDS011;32110;45.724;21.276;2023-07-31T02:42:32;4.15;;;3.72;;
46407;SDS011;32110;45.724;21.276;2023-07-31T02:44:57;7.05;;;4.00;;
46407;SDS011;32110;45.724;21.276;2023-07-31T02:47:23;5.05;;;3.60;;
46407;SDS011;32110;45.724;21.276;2023-07-31T02:49:48;7.53;;;3.65;;
46407;SDS011;32110;45.724;21.276;2023-07-31T02:52:14;6.45;;;3.38;;
46407;SDS011;32110;45.724;21.276;2023-07-31T02:54:39;6.75;;;3.47;;
46407;SDS011;32110;45.724;21.276;2023-07-31T02:57:04;6.07;;;3.92;;
46407;SDS011;32110;45.724;21.276;2023-07-31T02:59:30;4.80;;;3.50;;
46407;SDS011;32110;45.724;21.276;2023-07-31T03:01:55;5.53;;;3.92;;
46407;SDS011;32110;45.724;21.276;2023-07-31T03:04:21;5.20;;;3.83;;
46407;SDS011;32110;45.724;21.276;2023-07-31T03:06:46;7.05;;;3.80;;
46407;SDS011;32110;45.724;21.276;2023-07-31T03:09:12;6.60;;;3.90;;
46407;SDS011;32110;45.724;21.276;2023-07-31T03:11:37;5.22;;;3.85;;
46407;SDS011;32110;45.724;21.276;2023-07-31T03:14:02;7.53;;;4.68;;
46407;SDS011;32110;45.724;21.276;2023-07-31T03:16:28;6.65;;;4.22;;
46407;SDS011;32110;45.724;21.276;2023-07-31T03:18:53;7.40;;;4.93;;
46407;SDS011;32110;45.724;21.276;2023-07-31T03:21:19;7.68;;;4.55;;
46407;SDS011;32110;45.724;21.276;2023-07-31T03:23:45;5.50;;;4.53;;
46407;SDS011;32110;45.724;21.276;2023-07-31T03:26:10;8.70;;;4.63;;
46407;SDS011;32110;45.724;21.276;2023-07-31T03:28:35;6.28;;;4.82;;
46407;SDS011;32110;45.724;21.276;2023-07-31T03:31:01;9.48;;;5.00;;
46407;SDS011;32110;45.724;21.276;2023-07-31T03:33:27;6.25;;;5.10;;
46407;SDS011;32110;45.724;21.276;2023-07-31T03:35:52;6.40;;;4.63;;
46407;SDS011;32110;45.724;21.276;2023-07-31T03:38:18;8.55;;;5.13;;
46407;SDS011;32110;45.724;21.276;2023-07-31T03:40:44;6.18;;;4.88;;
46407;SDS011;32110;45.724;21.276;2023-07-31T03:43:09;9.25;;;5.45;;
46407;SDS011;32110;45.724;21.276;2023-07-31T03:45:35;8.85;;;5.70;;
46407;SDS011;32110;45.724;21.276;2023-07-31T03:48:01;7.22;;;5.25;;
46407;SDS011;32110;45.724;21.276;2023-07-31T03:50:27;6.50;;;5.18;;
46407;SDS011;32110;45.724;21.276;2023-07-31T03:52:52;6.95;;;5.55;;
46407;SDS011;32110;45.724;21.276;2023-07-31T03:55:18;7.53;;;5.90;;
46407;SDS011;32110;45.724;21.276;2023-07-31T03:57:43;8.13;;;5.78;;
46407;SDS011;32110;45.724;21.276;2023-07-31T04:00:09;10.50;;;5.78;;
46407;SDS011;32110;45.724;21.276;2023-07-31T04:02:35;7.97;;;5.35;;
46407;SDS011;32110;45.724;21.276;2023-07-31T04:05:00;11.68;;;6.10;;
46407;SDS011;32110;45.724;21.276;2023-07-31T04:07:25;8.45;;;6.15;;
46407;SDS011;32110;45.724;21.276;2023-07-31T04:09:51;7.53;;;5.13;;
46407;SDS011;32110;45.724;21.276;2023-07-31T04:12:16;6.80;;;5.35;;
46407;SDS011;32110;45.724;21.276;2023-07-31T04:14:41;7.25;;;5.47;;
46407;SDS011;32110;45.724;21.276;2023-07-31T04:17:07;10.50;;;5.88;;
46407;SDS011;32110;45.724;21.276;2023-07-31T04:19:32;10.68;;;6.45;;
46407;SDS011;32110;45.724;21.276;2023-07-31T04:21:57;7.90;;;5.90;;
46407;SDS011;32110;45.724;21.276;2023-07-31T04:24:23;9.02;;;6.32;;
46407;SDS011;32110;45.724;21.276;2023-07-31T04:26:51;9.43;;;6.15;;
46407;SDS011;32110;45.724;21.276;2023-07-31T04:29:17;8.48;;;6.20;;
46407;SDS011;32110;45.724;21.276;2023-07-31T04:31:43;7.75;;;6.05;;
46407;SDS011;32110;45.724;21.276;2023-07-31T04:34:08;9.80;;;5.88;;
46407;SDS011;32110;45.724;21.276;2023-07-31T04:36:34;11.48;;;6.38;;
46407;SDS011;32110;45.724;21.276;2023-07-31T04:39:00;8.77;;;6.05;;
46407;SDS011;32110;45.724;21.276;2023-07-31T04:41:26;9.52;;;6.57;;
46407;SDS011;32110;45.724;21.276;2023-07-31T04:43:51;11.43;;;6.88;;
46407;SDS011;32110;45.724;21.276;2023-07-31T04:46:16;9.52;;;6.30;;
46407;SDS011;32110;45.724;21.276;2023-07-31T04:48:42;8.77;;;6.18;;
46407;SDS011;32110;45.724;21.276;2023-07-31T04:51:07;9.48;;;6.88;;
46407;SDS011;32110;45.724;21.276;2023-07-31T04:53:34;9.23;;;6.18;;
46407;SDS011;32110;45.724;21.276;2023-07-31T04:55:59;10.18;;;6.53;;
46407;SDS011;32110;45.724;21.276;2023-07-31T04:58:25;8.88;;;6.32;;
46407;SDS011;32110;45.724;21.276;2023-07-31T05:00:50;12.25;;;6.85;;
46407;SDS011;32110;45.724;21.276;2023-07-31T05:03:16;9.18;;;6.68;;
46407;SDS011;32110;45.724;21.276;2023-07-31T05:05:42;19.05;;;7.57;;
46407;SDS011;32110;45.724;21.276;2023-07-31T05:08:07;13.40;;;7.22;;
46407;SDS011;32110;45.724;21.276;2023-07-31T05:10:32;10.38;;;6.90;;
46407;SDS011;32110;45.724;21.276;2023-07-31T05:12:58;11.85;;;7.20;;
46407;SDS011;32110;45.724;21.276;2023-07-31T05:15:23;11.57;;;7.88;;
46407;SDS011;32110;45.724;21.276;2023-07-31T05:17:49;11.23;;;7.47;;
46407;SDS011;32110;45.724;21.276;2023-07-31T05:20:14;11.65;;;7.40;;
46407;SDS011;32110;45.724;21.276;2023-07-31T05:22:40;12.30;;;7.72;;
46407;SDS011;32110;45.724;21.276;2023-07-31T05:25:05;10.38;;;7.47;;
46407;SDS011;32110;45.724;21.276;2023-07-31T05:27:31;13.27;;;7.35;;
46407;SDS011;32110;45.724;21.276;2023-07-31T05:29:57;9.27;;;7.20;;
46407;SDS011;32110;45.724;21.276;2023-07-31T05:32:22;11.15;;;6.95;;
46407;SDS011;32110;45.724;21.276;2023-07-31T05:34:50;8.70;;;7.07;;
46407;SDS011;32110;45.724;21.276;2023-07-31T05:37:16;10.20;;;7.10;;
46407;SDS011;32110;45.724;21.276;2023-07-31T05:39:42;11.77;;;7.80;;
46407;SDS011;32110;45.724;21.276;2023-07-31T05:42:07;10.38;;;7.22;;
46407;SDS011;32110;45.724;21.276;2023-07-31T05:44:32;9.75;;;6.88;;
46407;SDS011;32110;45.724;21.276;2023-07-31T05:46:58;10.82;;;6.65;;
46407;SDS011;32110;45.724;21.276;2023-07-31T05:49:23;7.97;;;6.55;;
46407;SDS011;32110;45.724;21.276;2023-07-31T05:51:49;9.43;;;6.28;;
46407;SDS011;32110;45.724;21.276;2023-07-31T05:54:14;10.68;;;6.65;;
46407;SDS011;32110;45.724;21.276;2023-07-31T05:56:39;9.23;;;6.07;;
46407;SDS011;32110;45.724;21.276;2023-07-31T05:59:05;9.98;;;6.05;;
46407;SDS011;32110;45.724;21.276;2023-07-31T06:01:30;7.68;;;6.60;;
46407;SDS011;32110;45.724;21.276;2023-07-31T06:03:55;8.77;;;6.63;;
46407;SDS011;32110;45.724;21.276;2023-07-31T06:06:21;8.70;;;6.65;;
46407;SDS011;32110;45.724;21.276;2023-07-31T06:08:46;10.63;;;6.65;;
46407;SDS011;32110;45.724;21.276;2023-07-31T06:11:11;11.20;;;5.95;;
46407;SDS011;32110;45.724;21.276;2023-07-31T06:13:37;11.70;;;6.07;;
46407;SDS011;32110;45.724;21.276;2023-07-31T06:16:02;12.93;;;7.05;;
46407;SDS011;32110;45.724;21.276;2023-07-31T06:18:31;7.70;;;6.60;;
46407;SDS011;32110;45.724;21.276;2023-07-31T06:20:57;12.48;;;6.25;;
46407;SDS011;32110;45.724;21.276;2023-07-31T06:23:22;8.48;;;6.85;;
46407;SDS011;32110;45.724;21.276;2023-07-31T06:25:48;8.48;;;6.55;;
46407;SDS011;32110;45.724;21.276;2023-07-31T06:28:13;10.98;;;6.90;;
46407;SDS011;32110;45.724;21.276;2023-07-31T06:30:39;8.65;;;6.20;;
46407;SDS011;32110;45.724;21.276;2023-07-31T06:33:04;7.38;;;6.22;;
46407;SDS011;32110;45.724;21.276;2023-07-31T06:35:29;16.08;;;6.78;;
46407;SDS011;32110;45.724;21.276;2023-07-31T06:37:55;12.05;;;6.57;;
46407;SDS011;32110;45.724;21.276;2023-07-31T06:40:20;12.13;;;7.03;;
46407;SDS011;32110;45.724;21.276;2023-07-31T06:42:47;10.98;;;7.10;;
46407;SDS011;32110;45.724;21.276;2023-07-31T06:45:12;8.18;;;5.70;;
46407;SDS011;32110;45.724;21.276;2023-07-31T06:47:37;9.38;;;6.22;;
46407;SDS011;32110;45.724;21.276;2023-07-31T06:50:03;9.23;;;6.18;;
46407;SDS011;32110;45.724;21.276;2023-07-31T06:52:30;7.30;;;6.15;;
46407;SDS011;32110;45.724;21.276;2023-07-31T06:55:28;11.10;;;6.32;;
46407;SDS011;32110;45.724;21.276;2023-07-31T06:57:48;9.10;;;5.80;;
46407;SDS011;32110;45.724;21.276;2023-07-31T07:00:15;7.97;;;6.20;;
46407;SDS011;32110;45.724;21.276;2023-07-31T07:02:41;9.88;;;5.82;;
46407;SDS011;32110;45.724;21.276;2023-07-31T07:05:07;7.38;;;5.85;;
46407;SDS011;32110;45.724;21.276;2023-07-31T07:07:33;8.52;;;5.93;;
46407;SDS011;32110;45.724;21.276;2023-07-31T07:09:59;11.93;;;6.60;;
46407;SDS011;32110;45.724;21.276;2023-07-31T07:12:25;8.68;;;5.47;;
46407;SDS011;32110;45.724;21.276;2023-07-31T07:14:50;7.72;;;5.72;;
46407;SDS011;32110;45.724;21.276;2023-07-31T07:17:17;6.15;;;5.43;;
46407;SDS011;32110;45.724;21.276;2023-07-31T07:19:43;7.13;;;5.38;;
46407;SDS011;32110;45.724;21.276;2023-07-31T07:22:09;7.82;;;5.15;;
46407;SDS011;32110;45.724;21.276;2023-07-31T07:24:35;12.63;;;5.38;;
46407;SDS011;32110;45.724;21.276;2023-07-31T07:27:00;5.78;;;4.90;;
46407;SDS011;32110;45.724;21.276;2023-07-31T07:29:26;8.52;;;5.50;;
46407;SDS011;32110;45.724;21.276;2023-07-31T07:31:51;7.75;;;5.10;;
46407;SDS011;32110;45.724;21.276;2023-07-31T07:34:17;7.55;;;4.78;;
46407;SDS011;32110;45.724;21.276;2023-07-31T07:36:42;7.38;;;5.10;;
46407;SDS011;32110;45.724;21.276;2023-07-31T07:39:08;6.55;;;4.47;;
46407;SDS011;32110;45.724;21.276;2023-07-31T07:41:35;5.07;;;4.43;;
46407;SDS011;32110;45.724;21.276;2023-07-31T07:44:00;6.97;;;3.90;;
46407;SDS011;32110;45.724;21.276;2023-07-31T07:46:25;5.05;;;4.38;;
46407;SDS011;32110;45.724;21.276;2023-07-31T07:48:51;5.10;;;4.28;;
46407;SDS011;32110;45.724;21.276;2023-07-31T07:51:16;6.35;;;4.70;;
46407;SDS011;32110;45.724;21.276;2023-07-31T07:53:41;7.22;;;4.10;;
46407;SDS011;32110;45.724;21.276;2023-07-31T07:56:07;8.00;;;4.30;;
46407;SDS011;32110;45.724;21.276;2023-07-31T07:58:32;7.75;;;4.28;;
46407;SDS011;32110;45.724;21.276;2023-07-31T08:00:58;7.13;;;3.80;;
46407;SDS011;32110;45.724;21.276;2023-07-31T08:03:23;5.00;;;3.55;;
46407;SDS011;32110;45.724;21.276;2023-07-31T08:05:48;7.28;;;3.88;;
46407;SDS011;32110;45.724;21.276;2023-07-31T08:08:15;4.15;;;3.30;;
46407;SDS011;32110;45.724;21.276;2023-07-31T08:10:44;5.95;;;3.30;;
46407;SDS011;32110;45.724;21.276;2023-07-31T08:13:10;8.30;;;3.30;;
46407;SDS011;32110;45.724;21.276;2023-07-31T08:15:36;4.00;;;3.05;;
46407;SDS011;32110;45.724;21.276;2023-07-31T08:18:02;4.93;;;3.30;;
46407;SDS011;32110;45.724;21.276;2023-07-31T08:20:27;4.47;;;3.40;;
46407;SDS011;32110;45.724;21.276;2023-07-31T08:22:53;4.50;;;3.00;;
46407;SDS011;32110;45.724;21.276;2023-07-31T08:25:18;4.03;;;3.30;;
46407;SDS011;32110;45.724;21.276;2023-07-31T08:27:44;3.10;;;2.65;;
46407;SDS011;32110;45.724;21.276;2023-07-31T08:30:10;3.03;;;2.72;;
46407;SDS011;32110;45.724;21.276;2023-07-31T08:32:36;3.70;;;2.90;;
46407;SDS011;32110;45.724;21.276;2023-07-31T08:35:02;4.32;;;2.90;;
46407;SDS011;32110;45.724;21.276;2023-07-31T08:37:28;6.30;;;2.85;;
46407;SDS011;32110;45.724;21.276;2023-07-31T08:39:53;6.43;;;2.90;;
46407;SDS011;32110;45.724;21.276;2023-07-31T08:42:19;3.53;;;2.67;;
46407;SDS011;32110;45.724;21.276;2023-07-31T08:44:45;4.03;;;2.67;;
46407;SDS011;32110;45.724;21.276;2023-07-31T08:47:12;2.88;;;2.58;;
46407;SDS011;32110;45.724;21.276;2023-07-31T08:49:38;3.20;;;2.65;;
46407;SDS011;32110;45.724;21.276;2023-07-31T08:52:05;3.35;;;2.50;;
46407;SDS011;32110;45.724;21.276;2023-07-31T08:54:31;5.53;;;3.03;;
46407;SDS011;32110;45.724;21.276;2023-07-31T08:56:58;4.10;;;2.85;;
46407;SDS011;32110;45.724;21.276;2023-07-31T08:59:25;5.15;;;2.60;;
46407;SDS011;32110;45.724;21.276;2023-07-31T09:04:20;3.47;;;2.65;;
46407;SDS011;32110;45.724;21.276;2023-07-31T09:06:47;4.00;;;2.65;;
46407;SDS011;32110;45.724;21.276;2023-07-31T09:09:13;2.85;;;2.50;;
46407;SDS011;32110;45.724;21.276;2023-07-31T09:11:40;3.78;;;2.50;;
46407;SDS011;32110;45.724;21.276;2023-07-31T09:14:05;3.40;;;2.85;;
46407;SDS011;32110;45.724;21.276;2023-07-31T09:16:33;3.07;;;2.47;;
46407;SDS011;32110;45.724;21.276;2023-07-31T09:18:59;2.70;;;2.45;;
46407;SDS011;32110;45.724;21.276;2023-07-31T09:21:27;4.00;;;2.50;;
46407;SDS011;32110;45.724;21.276;2023-07-31T09:23:53;3.60;;;2.75;;
46407;SDS011;32110;45.724;21.276;2023-07-31T09:26:29;5.55;;;2.60;;
46407;SDS011;32110;45.724;21.276;2023-07-31T09:28:55;3.67;;;2.50;;
46407;SDS011;32110;45.724;21.276;2023-07-31T09:34:10;7.25;;;2.70;;
46407;SDS011;32110;45.724;21.276;2023-07-31T09:36:42;3.03;;;2.60;;
46407;SDS011;32110;45.724;21.276;2023-07-31T09:39:13;3.22;;;2.70;;
46407;SDS011;32110;45.724;21.276;2023-07-31T09:41:44;3.22;;;2.40;;
46407;SDS011;32110;45.724;21.276;2023-07-31T09:44:18;3.17;;;2.35;;
46407;SDS011;32110;45.724;21.276;2023-07-31T09:46:44;2.58;;;2.17;;
46407;SDS011;32110;45.724;21.276;2023-07-31T09:49:10;2.67;;;2.08;;
46407;SDS011;32110;45.724;21.276;2023-07-31T09:51:37;3.67;;;2.17;;
46407;SDS011;32110;45.724;21.276;2023-07-31T09:54:16;2.30;;;2.00;;
46407;SDS011;32110;45.724;21.276;2023-07-31T09:56:45;5.63;;;2.33;;
46407;SDS011;32110;45.724;21.276;2023-07-31T09:59:17;4.13;;;2.38;;
46407;SDS011;32110;45.724;21.276;2023-07-31T10:01:44;4.07;;;2.28;;
46407;SDS011;32110;45.724;21.276;2023-07-31T10:04:11;5.40;;;2.10;;
46407;SDS011;32110;45.724;21.276;2023-07-31T10:06:38;2.40;;;2.10;;
46407;SDS011;32110;45.724;21.276;2023-07-31T10:09:06;2.20;;;1.95;;
46407;SDS011;32110;45.724;21.276;2023-07-31T10:11:34;2.85;;;1.90;;
46407;SDS011;32110;45.724;21.276;2023-07-31T10:14:06;3.13;;;2.08;;
46407;SDS011;32110;45.724;21.276;2023-07-31T10:16:32;4.05;;;2.47;;
46407;SDS011;32110;45.724;21.276;2023-07-31T10:19:00;4.47;;;2.38;;
46407;SDS011;32110;45.724;21.276;2023-07-31T10:21:26;4.90;;;2.28;;
46407;SDS011;32110;45.724;21.276;2023-07-31T10:23:52;2.20;;;2.00;;
46407;SDS011;32110;45.724;21.276;2023-07-31T10:26:19;4.18;;;2.10;;
46407;SDS011;32110;45.724;21.276;2023-07-31T10:28:48;3.97;;;2.20;;
46407;SDS011;32110;45.724;21.276;2023-07-31T10:31:15;2.80;;;2.00;;
46407;SDS011;32110;45.724;21.276;2023-07-31T10:33:41;3.45;;;1.90;;
46407;SDS011;32110;45.724;21.276;2023-07-31T10:36:14;2.30;;;1.80;;
46407;SDS011;32110;45.724;21.276;2023-07-31T10:38:42;2.45;;;1.88;;
46407;SDS011;32110;45.724;21.276;2023-07-31T10:41:10;2.00;;;1.63;;
46407;SDS011;32110;45.724;21.276;2023-07-31T10:43:39;3.58;;;1.92;;
46407;SDS011;32110;45.724;21.276;2023-07-31T10:46:08;2.50;;;1.90;;
46407;SDS011;32110;45.724;21.276;2023-07-31T10:48:36;2.53;;;1.70;;
46407;SDS011;32110;45.724;21.276;2023-07-31T10:51:07;2.10;;;1.90;;
46407;SDS011;32110;45.724;21.276;2023-07-31T10:53:34;3.88;;;1.60;;
46407;SDS011;32110;45.724;21.276;2023-07-31T10:56:00;2.40;;;1.70;;
46407;SDS011;32110;45.724;21.276;2023-07-31T10:58:27;1.73;;;1.60;;
46407;SDS011;32110;45.724;21.276;2023-07-31T11:00:56;2.70;;;2.13;;
46407;SDS011;32110;45.724;21.276;2023-07-31T11:03:46;3.45;;;2.00;;
46407;SDS011;32110;45.724;21.276;2023-07-31T11:06:17;2.13;;;1.60;;
46407;SDS011;32110;45.724;21.276;2023-07-31T11:08:43;4.53;;;1.55;;
46407;SDS011;32110;45.724;21.276;2023-07-31T11:11:11;1.83;;;1.50;;
46407;SDS011;32110;45.724;21.276;2023-07-31T11:13:45;2.25;;;1.75;;
46407;SDS011;32110;45.724;21.276;2023-07-31T11:16:15;3.40;;;1.65;;
46407;SDS011;32110;45.724;21.276;2023-07-31T11:18:42;3.67;;;1.70;;
46407;SDS011;32110;45.724;21.276;2023-07-31T11:21:11;1.90;;;1.25;;
46407;SDS011;32110;45.724;21.276;2023-07-31T11:23:41;1.92;;;1.50;;
46407;SDS011;32110;45.724;21.276;2023-07-31T11:26:10;3.33;;;1.52;;
46407;SDS011;32110;45.724;21.276;2023-07-31T11:28:37;2.55;;;1.80;;
46407;SDS011;32110;45.724;21.276;2023-07-31T11:31:03;2.00;;;1.80;;
46407;SDS011;32110;45.724;21.276;2023-07-31T11:33:29;1.90;;;1.45;;
46407;SDS011;32110;45.724;21.276;2023-07-31T11:35:56;2.08;;;1.50;;
46407;SDS011;32110;45.724;21.276;2023-07-31T11:38:39;3.75;;;1.58;;
46407;SDS011;32110;45.724;21.276;2023-07-31T11:41:05;8.27;;;1.50;;
46407;SDS011;32110;45.724;21.276;2023-07-31T11:43:30;3.00;;;1.40;;
46407;SDS011;32110;45.724;21.276;2023-07-31T11:45:57;1.83;;;1.55;;
46407;SDS011;32110;45.724;21.276;2023-07-31T11:48:25;3.13;;;1.30;;
46407;SDS011;32110;45.724;21.276;2023-07-31T11:50:52;3.38;;;1.60;;
46407;SDS011;32110;45.724;21.276;2023-07-31T11:53:33;1.92;;;1.65;;
46407;SDS011;32110;45.724;21.276;2023-07-31T11:56:03;2.15;;;1.60;;
46407;SDS011;32110;45.724;21.276;2023-07-31T12:00:58;4.20;;;1.50;;
46407;SDS011;32110;45.724;21.276;2023-07-31T12:03:24;2.38;;;1.38;;
46407;SDS011;32110;45.724;21.276;2023-07-31T12:05:50;1.50;;;1.40;;
46407;SDS011;32110;45.724;21.276;2023-07-31T12:08:16;2.65;;;1.23;;
46407;SDS011;32110;45.724;21.276;2023-07-31T12:10:42;5.32;;;1.42;;
46407;SDS011;32110;45.724;21.276;2023-07-31T12:13:08;2.05;;;1.33;;
46407;SDS011;32110;45.724;21.276;2023-07-31T12:15:43;2.17;;;1.48;;
46407;SDS011;32110;45.724;21.276;2023-07-31T12:18:18;2.58;;;1.40;;
46407;SDS011;32110;45.724;21.276;2023-07-31T12:20:49;2.97;;;1.77;;
46407;SDS011;32110;45.724;21.276;2023-07-31T12:23:20;2.17;;;1.40;;
46407;SDS011;32110;45.724;21.276;2023-07-31T12:26:08;5.43;;;1.40;;
46407;SDS011;32110;45.724;21.276;2023-07-31T12:31:12;3.22;;;1.70;;
46407;SDS011;32110;45.724;21.276;2023-07-31T12:33:40;3.45;;;1.55;;
46407;SDS011;32110;45.724;21.276;2023-07-31T12:36:07;5.05;;;1.30;;
46407;SDS011;32110;45.724;21.276;2023-07-31T12:38:34;3.03;;;1.40;;
46407;SDS011;32110;45.724;21.276;2023-07-31T12:40:59;3.03;;;1.40;;
46407;SDS011;32110;45.724;21.276;2023-07-31T12:43:25;3.20;;;1.65;;
46407;SDS011;32110;45.724;21.276;2023-07-31T12:45:51;6.47;;;1.55;;
46407;SDS011;32110;45.724;21.276;2023-07-31T12:48:16;3.00;;;1.30;;
46407;SDS011;32110;45.724;21.276;2023-07-31T12:50:41;1.88;;;1.35;;
46407;SDS011;32110;45.724;21.276;2023-07-31T12:53:07;3.47;;;1.40;;
46407;SDS011;32110;45.724;21.276;2023-07-31T12:55:33;2.15;;;1.27;;
46407;SDS011;32110;45.724;21.276;2023-07-31T12:57:59;4.15;;;1.50;;
46407;SDS011;32110;45.724;21.276;2023-07-31T13:00:25;1.77;;;1.30;;
46407;SDS011;32110;45.724;21.276;2023-07-31T13:02:51;2.88;;;1.60;;
46407;SDS011;32110;45.724;21.276;2023-07-31T13:05:16;2.25;;;1.40;;
46407;SDS011;32110;45.724;21.276;2023-07-31T13:07:43;2.88;;;1.40;;
46407;SDS011;32110;45.724;21.276;2023-07-31T13:10:08;5.25;;;1.58;;
46407;SDS011;32110;45.724;21.276;2023-07-31T13:12:34;1.98;;;1.48;;
46407;SDS011;32110;45.724;21.276;2023-07-31T13:14:59;3.60;;;1.30;;
46407;SDS011;32110;45.724;21.276;2023-07-31T13:17:25;3.53;;;1.20;;
46407;SDS011;32110;45.724;21.276;2023-07-31T13:19:51;3.50;;;1.48;;
46407;SDS011;32110;45.724;21.276;2023-07-31T13:22:17;3.30;;;1.45;;
46407;SDS011;32110;45.724;21.276;2023-07-31T13:24:42;2.45;;;1.40;;
46407;SDS011;32110;45.724;21.276;2023-07-31T13:27:07;2.17;;;1.23;;
46407;SDS011;32110;45.724;21.276;2023-07-31T13:29:33;4.30;;;1.40;;
46407;SDS011;32110;45.724;21.276;2023-07-31T13:31:58;3.22;;;1.45;;
46407;SDS011;32110;45.724;21.276;2023-07-31T13:34:24;3.25;;;1.30;;
46407;SDS011;32110;45.724;21.276;2023-07-31T13:36:49;1.88;;;1.40;;
46407;SDS011;32110;45.724;21.276;2023-07-31T13:39:15;1.85;;;1.20;;
46407;SDS011;32110;45.724;21.276;2023-07-31T13:41:40;3.42;;;1.30;;
46407;SDS011;32110;45.724;21.276;2023-07-31T13:44:06;4.90;;;1.60;;
46407;SDS011;32110;45.724;21.276;2023-07-31T13:46:31;5.28;;;1.20;;
46407;SDS011;32110;45.724;21.276;2023-07-31T13:48:58;3.25;;;1.50;;
46407;SDS011;32110;45.724;21.276;2023-07-31T13:51:24;2.67;;;1.33;;
46407;SDS011;32110;45.724;21.276;2023-07-31T13:53:50;3.67;;;1.23;;
46407;SDS011;32110;45.724;21.276;2023-07-31T13:56:16;3.15;;;1.30;;
46407;SDS011;32110;45.724;21.276;2023-07-31T13:58:41;4.05;;;1.25;;
46407;SDS011;32110;45.724;21.276;2023-07-31T14:01:07;2.42;;;1.33;;
46407;SDS011;32110;45.724;21.276;2023-07-31T14:03:32;2.08;;;1.30;;
46407;SDS011;32110;45.724;21.276;2023-07-31T14:05:58;3.40;;;1.10;;
46407;SDS011;32110;45.724;21.276;2023-07-31T14:08:23;1.75;;;1.48;;
46407;SDS011;32110;45.724;21.276;2023-07-31T14:10:48;6.38;;;1.40;;
46407;SDS011;32110;45.724;21.276;2023-07-31T14:13:14;2.20;;;1.25;;
46407;SDS011;32110;45.724;21.276;2023-07-31T14:15:42;4.03;;;1.75;;
46407;SDS011;32110;45.724;21.276;2023-07-31T14:18:08;4.43;;;1.30;;
46407;SDS011;32110;45.724;21.276;2023-07-31T14:20:34;3.92;;;1.50;;
46407;SDS011;32110;45.724;21.276;2023-07-31T14:23:00;7.35;;;1.33;;
46407;SDS011;32110;45.724;21.276;2023-07-31T14:25:26;3.15;;;1.15;;
46407;SDS011;32110;45.724;21.276;2023-07-31T14:27:51;2.75;;;1.42;;
46407;SDS011;32110;45.724;21.276;2023-07-31T14:30:16;2.83;;;1.27;;
46407;SDS011;32110;45.724;21.276;2023-07-31T14:32:43;2.75;;;1.30;;
46407;SDS011;32110;45.724;21.276;2023-07-31T14:35:08;1.92;;;1.20;;
46407;SDS011;32110;45.724;21.276;2023-07-31T14:37:40;4.72;;;1.40;;
46407;SDS011;32110;45.724;21.276;2023-07-31T14:40:07;2.72;;;1.30;;
46407;SDS011;32110;45.724;21.276;2023-07-31T14:42:34;4.53;;;2.03;;
46407;SDS011;32110;45.724;21.276;2023-07-31T14:45:00;2.72;;;1.30;;
46407;SDS011;32110;45.724;21.276;2023-07-31T14:47:26;5.60;;;1.30;;